Liberal, KS

3:20 PM CDT on March 30, 2017 (GMT -0500)
Liberal Municipal

Weather History for KLBL - May, 2013

Change the Weather History Date:

Thursday, May 2, 2013

  Actual Average Record
Temperature  
Mean Temperature 42 °F -  
Max Temperature 51 °F 72 °F 102 °F (1992)
Min Temperature 32 °F 44 °F 31 °F (1954)
Degree Days  
Heating Degree Days 23    
Moisture  
Dew Point 24 °F    
Average Humidity 58    
Maximum Humidity 81    
Minimum Humidity 28    
Precipitation  
Precipitation 0.00 in - - ()
Sea Level Pressure  
Sea Level Pressure 30.54 in    
Wind  
Wind Speed 25 mph (North)    
Max Wind Speed 34 mph    
Max Gust Speed 40 mph    
Visibility 9 miles    
Events      
Averages and records for this station are not official NWS values.
T = Trace of Precipitation, MM = Missing Value Source: NWS Daily Summary

Daily Weather History Graph

Daily Weather History Graph

Search for Another Location

Airport or City:

Trip Planner

Search our weather history database for the weather conditions in past years. The results will help you decide how hot, cold, wet, or windy it might be!

Date:

Astronomy

May. 02, 2013 Rise Set
Actual Time 6:48 AM CDT 8:34 PM CDT
Civil Twilight 6:20 AM CDT 9:02 PM CDT
Nautical Twilight 5:46 AM CDT 9:36 PM CDT
Astronomical Twilight 5:10 AM CDT 10:12 PM CDT
Moon 2:26 AM CDT (5/2) 1:35 PM CDT (5/2)
Length of Visible Light 14h 42m
Length of Day
13h 46m
Waning Gibbous, 47% of the Moon is Illuminated
May 2
Waning Gibbous
May 9
New
May 17
First Quarter
May 24
Full
May 31
Last Quarter

Hourly Weather History & Observations

Time (CDT) Temp. Windchill Dew Point Humidity Pressure Visibility Wind Dir Wind Speed Gust Speed Precip Events Conditions
12:15 AM 33.8 °F 20.5 °F 28.4 °F 81% 30.44 in 10.0 mi North 27.6 mph 36.8 mph N/A   Overcast
12:35 AM 33.8 °F 20.5 °F 28.4 °F 81% 30.45 in 10.0 mi North 27.6 mph 35.7 mph N/A   Overcast
12:55 AM 33.8 °F 19.9 °F 26.6 °F 75% 30.45 in 10.0 mi North 31.1 mph 38.0 mph N/A   Overcast
1:15 AM 33.8 °F 19.9 °F 26.6 °F 75% 30.47 in 10.0 mi North 31.1 mph 35.7 mph N/A   Overcast
1:35 AM 33.8 °F 21.0 °F 26.6 °F 75% 30.49 in 10.0 mi North 25.3 mph 35.7 mph N/A   Overcast
1:55 AM 33.8 °F 20.5 °F 28.4 °F 81% 30.48 in 10.0 mi North 27.6 mph 32.2 mph N/A   Overcast
2:15 AM 33.8 °F 21.0 °F 28.4 °F 81% 30.49 in 10.0 mi North 25.3 mph 32.2 mph N/A   Overcast
2:35 AM 33.8 °F 21.3 °F 28.4 °F 81% 30.48 in 10.0 mi North 24.2 mph 31.1 mph N/A   Overcast
2:55 AM 33.8 °F 20.5 °F 26.6 °F 75% 30.49 in 10.0 mi North 27.6 mph 33.4 mph N/A   Overcast
3:15 AM 33.8 °F 21.6 °F 28.4 °F 81% 30.49 in 10.0 mi North 23.0 mph 33.4 mph N/A   Overcast
3:35 AM 33.8 °F 20.8 °F 26.6 °F 75% 30.49 in 10.0 mi North 26.5 mph 33.4 mph N/A   Overcast
3:55 AM 33.8 °F 21.0 °F 26.6 °F 75% 30.50 in 1.8 mi North 25.3 mph - N/A   Overcast
4:15 AM 33.8 °F 21.3 °F 26.6 °F 75% 30.50 in 1.0 mi North 24.2 mph 32.2 mph N/A   Overcast
4:35 AM 33.8 °F 21.6 °F 26.6 °F 75% 30.51 in 2.0 mi North 23.0 mph 29.9 mph N/A   Overcast
4:55 AM 33.8 °F 21.6 °F 26.6 °F 75% 30.51 in 1.5 mi North 23.0 mph - N/A   Overcast
5:15 AM 33.8 °F 21.9 °F 26.6 °F 75% 30.51 in 3.0 mi North 21.9 mph - N/A   Overcast
5:35 AM 33.8 °F 20.8 °F 26.6 °F 75% 30.52 in 1.2 mi North 26.5 mph 29.9 mph N/A   Overcast
5:55 AM 33.8 °F 20.5 °F 26.6 °F 75% 30.53 in 3.0 mi North 27.6 mph - N/A   Overcast
6:15 AM 33.8 °F 20.3 °F 26.6 °F 75% 30.54 in 10.0 mi North 28.8 mph 32.2 mph N/A   Overcast
6:35 AM 33.8 °F 20.3 °F 28.4 °F 81% 30.56 in 5.0 mi North 28.8 mph 34.5 mph N/A   Overcast
6:55 AM 33.8 °F 20.3 °F 26.6 °F 75% 30.56 in 3.0 mi North 28.8 mph 35.7 mph N/A   Overcast
7:15 AM 33.8 °F 20.3 °F 28.4 °F 81% 30.57 in 2.0 mi North 28.8 mph 34.5 mph N/A   Overcast
7:35 AM 33.8 °F 21.0 °F 26.6 °F 75% 30.57 in 9.0 mi North 25.3 mph 34.5 mph N/A   Overcast
7:55 AM 33.8 °F 19.6 °F 28.4 °F 81% 30.58 in 10.0 mi North 32.2 mph 36.8 mph N/A   Overcast
8:15 AM 33.8 °F 20.5 °F 28.4 °F 81% 30.58 in 10.0 mi North 27.6 mph 34.5 mph N/A   Overcast
8:35 AM 33.8 °F 20.5 °F 28.4 °F 81% 30.59 in 10.0 mi North 27.6 mph 33.4 mph N/A   Overcast
8:55 AM 33.8 °F 20.5 °F 28.4 °F 81% 30.60 in 10.0 mi North 27.6 mph 34.5 mph N/A   Mostly Cloudy
9:15 AM 35.6 °F 23.2 °F 28.4 °F 75% 30.61 in 10.0 mi North 26.5 mph 33.4 mph N/A   Mostly Cloudy
9:35 AM 35.6 °F 23.2 °F 28.4 °F 75% 30.61 in 10.0 mi North 26.5 mph 38.0 mph N/A   Mostly Cloudy
9:55 AM 35.6 °F 22.7 °F 28.4 °F 75% 30.62 in 10.0 mi North 28.8 mph 33.4 mph N/A   Overcast
10:15 AM 35.6 °F 22.1 °F 28.4 °F 75% 30.62 in 10.0 mi North 32.2 mph 39.1 mph N/A   Mostly Cloudy
10:35 AM 37.4 °F 25.2 °F 30.2 °F 75% 30.62 in 10.0 mi North 28.8 mph 34.5 mph N/A   Overcast
10:55 AM 39.2 °F 27.0 °F 30.2 °F 70% 30.62 in 10.0 mi North 32.2 mph 38.0 mph N/A   Overcast
11:15 AM 39.2 °F 28.0 °F 30.2 °F 70% 30.63 in 10.0 mi North 26.5 mph 33.4 mph N/A   Overcast
11:35 AM 39.2 °F 27.8 °F 28.4 °F 65% 30.63 in 10.0 mi North 27.6 mph 34.5 mph N/A   Overcast
11:55 AM 39.2 °F 27.4 °F 28.4 °F 65% 30.63 in 10.0 mi North 29.9 mph 35.7 mph N/A   Overcast
12:15 PM 41.0 °F 30.9 °F 28.4 °F 61% 30.63 in 10.0 mi North 24.2 mph 33.4 mph N/A   Overcast
12:35 PM 42.8 °F 33.3 °F 28.4 °F 57% 30.63 in 10.0 mi NNE 24.2 mph 35.7 mph N/A   Mostly Cloudy
12:55 PM 42.8 °F 33.5 °F 28.4 °F 57% 30.62 in 10.0 mi North 23.0 mph 32.2 mph N/A   Overcast
1:15 PM 44.6 °F 36.4 °F 30.2 °F 57% 30.60 in 10.0 mi North 20.7 mph 29.9 mph N/A   Overcast
2:15 PM 48.2 °F - 26.6 °F 43% 30.58 in 10.0 mi North 26.5 mph 36.8 mph N/A   Mostly Cloudy
2:35 PM 48.2 °F - 23.0 °F 37% 30.58 in 10.0 mi North 27.6 mph 36.8 mph N/A   Overcast
2:55 PM 48.2 °F - 23.0 °F 37% 30.57 in 10.0 mi North 34.5 mph 40.3 mph N/A   Mostly Cloudy
3:15 PM 50.0 °F - 21.2 °F 32% 30.57 in 10.0 mi NNE 27.6 mph 38.0 mph N/A   Mostly Cloudy
3:35 PM 51.8 °F - 21.2 °F 30% 30.56 in 10.0 mi North 23.0 mph 34.5 mph N/A   Scattered Clouds
3:55 PM 51.8 °F - 19.4 °F 28% 30.55 in 10.0 mi North 25.3 mph 39.1 mph N/A   Scattered Clouds
4:15 PM 51.8 °F - 21.2 °F 30% 30.54 in 10.0 mi North 31.1 mph 38.0 mph N/A   Clear
4:35 PM 51.8 °F - 21.2 °F 30% 30.54 in 10.0 mi NNE 23.0 mph 35.7 mph N/A   Clear
4:55 PM 51.8 °F - 19.4 °F 28% 30.54 in 10.0 mi North 26.5 mph 38.0 mph N/A   Clear
5:15 PM 51.8 °F - 19.4 °F 28% 30.53 in 10.0 mi North 25.3 mph 31.1 mph N/A   Partly Cloudy
5:35 PM 51.8 °F - 21.2 °F 30% 30.53 in 10.0 mi North 24.2 mph 31.1 mph N/A   Scattered Clouds
5:55 PM 50.0 °F - 17.6 °F 28% 30.52 in 10.0 mi North 26.5 mph 29.9 mph N/A   Scattered Clouds
6:15 PM 48.2 °F - 17.6 °F 30% 30.52 in 10.0 mi North 23.0 mph 32.2 mph N/A   Partly Cloudy
6:35 PM 50.0 °F - 19.4 °F 30% 30.52 in 10.0 mi NNE 20.7 mph 29.9 mph N/A   Clear
6:55 PM 50.0 °F - 19.4 °F 30% 30.52 in 10.0 mi NNE 21.9 mph 28.8 mph N/A   Clear
7:15 PM 50.0 °F - 19.4 °F 30% 30.52 in 10.0 mi North 19.6 mph 31.1 mph N/A   Partly Cloudy
7:35 PM 48.2 °F - 19.4 °F 32% 30.52 in 10.0 mi North 21.9 mph 26.5 mph N/A   Partly Cloudy
7:55 PM 48.2 °F - 17.6 °F 30% 30.52 in 10.0 mi NNE 16.1 mph - N/A   Clear
8:15 PM 46.4 °F 40.4 °F 17.6 °F 32% 30.51 in 10.0 mi NNE 13.8 mph - N/A   Clear
8:35 PM 44.6 °F 39.2 °F 17.6 °F 34% 30.51 in 10.0 mi North 10.4 mph - N/A   Clear
8:55 PM 41.0 °F 35.2 °F 15.8 °F 36% 30.50 in 10.0 mi North 9.2 mph - N/A   Clear
9:15 PM 39.2 °F 33.6 °F 15.8 °F 39% 30.50 in 10.0 mi North 8.1 mph - N/A   Clear
9:35 PM 37.4 °F 32.1 °F 17.6 °F 45% 30.50 in 10.0 mi NNW 6.9 mph - N/A   Clear
9:55 PM 35.6 °F 29.9 °F 17.6 °F 48% 30.50 in 10.0 mi NNW 6.9 mph - N/A   Clear
10:15 PM 33.8 °F 27.0 °F 17.6 °F 52% 30.50 in 10.0 mi North 8.1 mph - N/A   Clear
10:35 PM 33.8 °F 27.0 °F 17.6 °F 52% 30.49 in 10.0 mi NNW 8.1 mph - N/A   Clear
10:55 PM 33.8 °F 25.8 °F 19.4 °F 56% 30.49 in 10.0 mi NNW 10.4 mph - N/A   Clear
11:15 PM 33.8 °F 26.4 °F 17.6 °F 52% 30.49 in 10.0 mi NNW 9.2 mph - N/A   Clear
11:35 PM 33.8 °F 27.7 °F 19.4 °F 56% 30.48 in 10.0 mi NW 6.9 mph - N/A   Clear
11:55 PM 32.0 °F 26.4 °F 17.6 °F 55% 30.48 in 10.0 mi NW 5.8 mph - N/A   Clear